createdAt,value
2023-03-26T00:01:21.324Z,17.98
2023-03-26T00:03:53.634Z,16.75
2023-03-26T00:06:25.960Z,18.48
2023-03-26T00:08:53.458Z,15.05
2023-03-26T00:11:22.663Z,16.08
2023-03-26T00:13:50.193Z,15.95
2023-03-26T00:16:19.910Z,14.93
2023-03-26T00:18:48.988Z,15.52
2023-03-26T00:21:18.479Z,15.35
2023-03-26T00:23:45.490Z,13.63
2023-03-26T00:26:12.940Z,13.48
2023-03-26T00:28:41.843Z,14.18
2023-03-26T00:31:14.843Z,14.02
2023-03-26T00:33:42.024Z,13.15
2023-03-26T00:36:14.498Z,15.40
2023-03-26T00:38:43.062Z,16.10
2023-03-26T00:41:22.888Z,17.65
2023-03-26T00:43:53.508Z,18.75
2023-03-26T00:46:20.383Z,19.40
2023-03-26T00:48:47.362Z,16.75
2023-03-26T00:51:16.157Z,15.35
2023-03-26T00:53:45.153Z,14.68
2023-03-26T00:56:12.379Z,14.57
2023-03-26T00:58:39.958Z,13.00
2023-03-26T01:01:10.796Z,14.45
2023-03-26T01:03:38.715Z,12.95
2023-03-26T01:06:08.160Z,16.75
2023-03-26T01:08:38.390Z,14.77
2023-03-26T01:11:14.452Z,15.40
2023-03-26T01:13:48.546Z,15.00
2023-03-26T01:16:26.301Z,13.33
2023-03-26T01:18:54.085Z,11.60
2023-03-26T01:21:23.175Z,12.07
2023-03-26T01:24:02.481Z,14.50
2023-03-26T01:26:38.942Z,14.32
2023-03-26T01:29:10.162Z,14.35
2023-03-26T01:31:37.137Z,21.23
2023-03-26T01:34:19.822Z,25.63
2023-03-26T01:37:18.562Z,24.05
2023-03-26T01:39:57.089Z,23.13
2023-03-26T01:42:33.314Z,34.58
2023-03-26T01:45:23.072Z,16.95
2023-03-26T01:47:50.582Z,12.52
2023-03-26T01:50:17.224Z,10.50
2023-03-26T01:52:43.920Z,13.80
2023-03-26T01:55:14.419Z,13.32
2023-03-26T01:57:47.552Z,14.93
2023-03-26T02:00:20.891Z,13.43
2023-03-26T02:03:01.965Z,14.48
2023-03-26T02:05:44.183Z,16.77
2023-03-26T02:08:21.160Z,17.60
2023-03-26T02:10:52.515Z,14.75
2023-03-26T02:13:19.327Z,13.18
2023-03-26T02:16:03.396Z,16.25
2023-03-26T02:18:42.022Z,15.93
2023-03-26T02:21:13.408Z,13.13
2023-03-26T02:23:46.882Z,18.17
2023-03-26T02:26:16.611Z,19.70
2023-03-26T02:28:43.364Z,20.65
2023-03-26T02:31:11.221Z,16.70
2023-03-26T02:33:38.002Z,14.80
2023-03-26T02:36:05.234Z,24.00
2023-03-26T02:38:35.506Z,41.55
2023-03-26T02:41:03.204Z,59.20
2023-03-26T02:43:30.728Z,51.30
2023-03-26T02:45:58.002Z,34.38
2023-03-26T02:48:25.339Z,28.50
2023-03-26T02:50:54.503Z,32.38
2023-03-26T02:53:21.923Z,30.40
2023-03-26T02:55:48.598Z,28.50
2023-03-26T02:58:18.262Z,31.48
2023-03-26T03:00:46.945Z,28.55
2023-03-26T03:03:14.465Z,28.95
2023-03-26T03:05:43.354Z,30.38
2023-03-26T03:08:10.375Z,32.22
2023-03-26T03:10:37.889Z,33.65
2023-03-26T03:13:07.866Z,20.95
2023-03-26T03:15:35.117Z,18.70
2023-03-26T03:18:02.530Z,15.98
2023-03-26T03:20:30.646Z,14.88
2023-03-26T03:22:57.329Z,21.25
2023-03-26T03:25:26.104Z,32.20
2023-03-26T03:27:54.053Z,23.60
2023-03-26T03:30:21.036Z,37.50
2023-03-26T03:32:47.940Z,46.40
2023-03-26T03:35:14.617Z,36.20
2023-03-26T03:37:41.627Z,28.33
2023-03-26T03:40:11.141Z,39.17
2023-03-26T03:42:38.539Z,38.13
2023-03-26T03:45:06.910Z,41.53
2023-03-26T03:47:33.779Z,110.20
2023-03-26T03:50:01.057Z,59.47
2023-03-26T03:52:28.231Z,63.92
2023-03-26T03:55:00.550Z,60.83
2023-03-26T03:57:28.614Z,61.00
2023-03-26T03:59:58.528Z,65.88
2023-03-26T04:02:26.881Z,62.22
2023-03-26T04:04:54.385Z,51.45
2023-03-26T04:07:21.225Z,48.47
2023-03-26T04:09:47.948Z,54.35
2023-03-26T04:12:14.985Z,61.25
2023-03-26T04:14:42.099Z,62.78
2023-03-26T04:17:09.087Z,75.35
2023-03-26T04:19:35.874Z,70.07
2023-03-26T04:22:02.727Z,57.63
2023-03-26T04:24:30.243Z,61.53
2023-03-26T04:27:01.434Z,46.90
2023-03-26T04:29:30.758Z,48.78
2023-03-26T04:32:06.659Z,58.15
2023-03-26T04:34:34.388Z,47.28
2023-03-26T04:37:05.084Z,48.13
2023-03-26T04:39:34.329Z,27.23
2023-03-26T04:42:01.380Z,16.02
2023-03-26T04:44:30.367Z,20.48
2023-03-26T04:46:57.106Z,33.22
2023-03-26T04:49:23.728Z,28.90
2023-03-26T04:51:50.747Z,19.52
2023-03-26T04:54:20.248Z,24.08
2023-03-26T04:57:05.081Z,18.30
2023-03-26T04:59:37.224Z,16.20
2023-03-26T05:02:07.976Z,20.52
2023-03-26T05:04:36.927Z,20.23
2023-03-26T05:07:03.718Z,19.48
2023-03-26T05:09:30.768Z,21.15
2023-03-26T05:11:58.404Z,27.65
2023-03-26T05:14:25.101Z,15.13
2023-03-26T05:16:53.335Z,15.05
2023-03-26T05:19:20.293Z,19.45
2023-03-26T05:21:46.976Z,20.55
2023-03-26T05:24:13.642Z,13.95
2023-03-26T05:26:40.346Z,13.30
2023-03-26T05:29:07.107Z,11.80
2023-03-26T05:31:33.882Z,11.52
2023-03-26T05:34:00.749Z,10.38
2023-03-26T05:36:30.962Z,9.30
2023-03-26T05:38:57.696Z,7.93
2023-03-26T05:41:24.385Z,7.53
2023-03-26T05:43:51.276Z,12.02
2023-03-26T05:46:20.306Z,15.88
2023-03-26T05:48:47.290Z,8.25
2023-03-26T05:51:15.663Z,8.70
2023-03-26T05:53:43.209Z,7.35
2023-03-26T05:56:10.623Z,7.07
2023-03-26T05:58:38.052Z,6.90
2023-03-26T06:01:08.456Z,5.68
2023-03-26T06:03:39.960Z,7.93
2023-03-26T06:06:15.620Z,8.55
2023-03-26T06:08:48.952Z,8.68
2023-03-26T06:11:29.882Z,5.65
2023-03-26T06:13:56.631Z,6.18
2023-03-26T06:16:27.284Z,4.80
2023-03-26T06:18:56.428Z,4.60
2023-03-26T06:21:25.753Z,5.85
2023-03-26T06:23:53.291Z,5.00
2023-03-26T06:26:19.927Z,5.88
2023-03-26T06:28:46.691Z,3.55
2023-03-26T06:31:13.462Z,4.68
2023-03-26T06:33:40.251Z,3.90
2023-03-26T06:36:07.367Z,6.43
2023-03-26T06:38:34.077Z,4.35
2023-03-26T06:41:07.223Z,6.90
2023-03-26T06:43:34.204Z,3.78
2023-03-26T06:46:01.667Z,3.17
2023-03-26T06:48:32.689Z,4.07
2023-03-26T06:50:59.446Z,6.57
2023-03-26T06:53:26.329Z,5.28
2023-03-26T06:55:55.071Z,6.05
2023-03-26T06:58:22.383Z,6.28
2023-03-26T07:00:53.772Z,3.88
2023-03-26T07:03:20.943Z,2.35
2023-03-26T07:05:47.871Z,3.08
2023-03-26T07:08:14.934Z,2.85
2023-03-26T07:10:42.113Z,3.03
2023-03-26T07:13:08.802Z,2.38
2023-03-26T07:15:35.936Z,4.88
2023-03-26T07:18:02.719Z,2.45
2023-03-26T07:20:29.932Z,2.85
2023-03-26T07:22:56.961Z,3.28
2023-03-26T07:25:23.935Z,2.72
2023-03-26T07:28:27.430Z,2.75
2023-03-26T07:31:11.774Z,4.03
2023-03-26T07:33:47.733Z,3.77
2023-03-26T07:36:29.597Z,3.03
2023-03-26T07:39:12.418Z,3.45
2023-03-26T07:41:44.816Z,2.33
2023-03-26T07:44:29.600Z,4.25
2023-03-26T07:46:57.262Z,3.08
2023-03-26T07:49:24.186Z,2.17
2023-03-26T07:51:51.176Z,3.55
2023-03-26T07:54:18.351Z,4.03
2023-03-26T07:56:59.157Z,3.83
2023-03-26T07:59:47.897Z,2.50
2023-03-26T08:02:17.731Z,3.38
2023-03-26T08:05:03.949Z,3.78
2023-03-26T08:07:58.641Z,3.08
2023-03-26T08:10:39.126Z,2.90
2023-03-26T08:13:30.442Z,4.65
2023-03-26T08:16:29.439Z,5.97
2023-03-26T08:19:33.401Z,4.90
2023-03-26T08:22:27.246Z,4.93
2023-03-26T08:25:01.495Z,5.15
2023-03-26T08:27:43.385Z,5.90
2023-03-26T08:30:25.500Z,3.67
2023-03-26T08:32:56.813Z,3.65
2023-03-26T08:35:26.276Z,2.97
2023-03-26T08:37:53.664Z,4.55
2023-03-26T08:41:05.373Z,3.15
2023-03-26T08:44:08.968Z,2.05
2023-03-26T08:47:20.802Z,2.53
2023-03-26T08:50:24.550Z,1.95
2023-03-26T08:52:51.268Z,3.53
2023-03-26T08:55:20.916Z,1.90
2023-03-26T08:57:59.028Z,1.40
2023-03-26T09:01:00.316Z,2.53
2023-03-26T09:04:14.975Z,2.53
2023-03-26T09:07:01.665Z,1.88
2023-03-26T09:10:07.032Z,1.15
2023-03-26T09:12:59.052Z,1.85
2023-03-26T09:16:07.816Z,2.50
2023-03-26T09:19:03.915Z,3.03
2023-03-26T09:22:02.767Z,2.17
2023-03-26T09:25:13.639Z,1.92
2023-03-26T09:28:12.025Z,2.80
2023-03-26T09:31:11.849Z,3.33
2023-03-26T09:33:47.714Z,1.67
2023-03-26T09:36:38.187Z,3.70
2023-03-26T09:39:08.751Z,2.22
2023-03-26T09:41:44.002Z,5.95
2023-03-26T09:44:35.700Z,3.22
2023-03-26T09:47:40.330Z,1.15
2023-03-26T09:50:40.244Z,1.20
2023-03-26T09:53:25.364Z,1.63
2023-03-26T09:56:10.980Z,4.80
2023-03-26T09:58:59.774Z,4.13
2023-03-26T10:01:40.653Z,2.13
2023-03-26T10:04:27.364Z,3.72
2023-03-26T10:07:07.857Z,1.55
2023-03-26T10:09:56.723Z,2.55
2023-03-26T10:12:44.432Z,3.50
2023-03-26T10:15:58.703Z,1.83
2023-03-26T10:19:08.860Z,1.00
2023-03-26T10:21:55.220Z,7.18
2023-03-26T10:24:33.972Z,1.77
2023-03-26T10:27:25.496Z,2.30
2023-03-26T10:29:52.239Z,1.10
2023-03-26T10:32:34.068Z,0.70
2023-03-26T10:35:09.938Z,0.75
2023-03-26T10:37:43.558Z,1.40
2023-03-26T10:40:19.273Z,1.63
2023-03-26T10:43:23.215Z,0.63
2023-03-26T10:46:01.594Z,1.55
2023-03-26T10:48:47.755Z,2.08
2023-03-26T10:51:29.582Z,1.55
2023-03-26T10:54:24.721Z,1.10
2023-03-26T10:56:52.425Z,3.08
2023-03-26T10:59:19.305Z,1.10
2023-03-26T11:02:30.092Z,0.90
2023-03-26T11:05:09.118Z,6.32
2023-03-26T11:07:43.947Z,0.85
2023-03-26T11:10:26.023Z,0.28
2023-03-26T11:13:20.578Z,0.90
2023-03-26T11:16:09.769Z,1.00
2023-03-26T11:18:57.838Z,1.35
2023-03-26T11:21:32.471Z,0.52
2023-03-26T11:24:08.239Z,2.00
2023-03-26T11:27:15.298Z,0.93
2023-03-26T11:30:06.233Z,2.78
2023-03-26T11:32:43.112Z,1.40
2023-03-26T11:35:42.326Z,1.75
2023-03-26T11:38:40.253Z,1.60
2023-03-26T11:41:16.861Z,1.35
2023-03-26T11:43:56.423Z,1.33
2023-03-26T11:46:24.855Z,1.75
2023-03-26T11:48:59.948Z,1.05
2023-03-26T11:51:33.693Z,1.38
2023-03-26T11:54:01.792Z,1.92
2023-03-26T11:57:04.905Z,1.30
2023-03-26T11:59:57.645Z,1.02
2023-03-26T12:02:25.005Z,1.42
2023-03-26T12:04:56.074Z,0.80
2023-03-26T12:07:31.826Z,0.50
2023-03-26T12:10:18.117Z,0.60
2023-03-26T12:12:47.231Z,0.68
2023-03-26T12:15:16.265Z,1.02
2023-03-26T12:17:43.301Z,1.35
2023-03-26T12:20:32.755Z,1.17
2023-03-26T12:23:05.251Z,0.73
2023-03-26T12:25:38.653Z,1.15
2023-03-26T12:28:18.089Z,1.27
2023-03-26T12:30:58.375Z,2.08
2023-03-26T12:33:28.245Z,2.75
2023-03-26T12:36:00.752Z,2.95
2023-03-26T12:38:35.915Z,1.13
2023-03-26T12:41:05.885Z,2.72
2023-03-26T12:44:51.245Z,1.27
2023-03-26T12:47:46.201Z,0.70
2023-03-26T12:49:23.165Z,1.38
2023-03-26T12:51:56.929Z,2.40
2023-03-26T12:54:54.179Z,2.08
2023-03-26T12:57:25.062Z,1.15
2023-03-26T13:00:25.641Z,2.75
2023-03-26T13:03:11.489Z,2.60
2023-03-26T13:05:51.228Z,3.08
2023-03-26T13:08:39.650Z,12.43
2023-03-26T13:11:06.394Z,1.45
2023-03-26T13:14:02.120Z,2.80
2023-03-26T13:16:47.215Z,3.08
2023-03-26T13:19:40.556Z,1.63
2023-03-26T13:22:15.293Z,4.22
2023-03-26T13:25:19.044Z,2.33
2023-03-26T13:27:48.456Z,3.03
2023-03-26T13:30:42.712Z,3.65
2023-03-26T13:33:21.813Z,7.82
2023-03-26T13:36:06.553Z,6.30
2023-03-26T13:39:03.412Z,6.45
2023-03-26T13:41:57.681Z,4.95
2023-03-26T13:44:45.962Z,2.92
2023-03-26T13:47:27.710Z,5.53
2023-03-26T13:50:00.655Z,6.25
2023-03-26T13:52:37.978Z,6.20
2023-03-26T13:55:37.400Z,7.18
2023-03-26T13:58:22.537Z,7.18
2023-03-26T14:00:49.149Z,8.25
2023-03-26T14:03:31.794Z,7.72
2023-03-26T14:06:04.437Z,7.20
2023-03-26T14:08:38.446Z,6.65
2023-03-26T14:11:31.860Z,8.55
2023-03-26T14:14:11.354Z,8.32
2023-03-26T14:16:48.348Z,7.28
2023-03-26T14:20:05.420Z,7.13
2023-03-26T14:23:09.926Z,11.20
2023-03-26T14:25:50.397Z,9.90
2023-03-26T14:28:20.068Z,10.07
2023-03-26T14:31:30.128Z,10.57
2023-03-26T14:33:57.158Z,10.07
2023-03-26T14:36:49.864Z,11.52
2023-03-26T14:39:19.356Z,11.95
2023-03-26T14:41:53.316Z,12.35
2023-03-26T14:44:56.509Z,23.33
2023-03-26T14:47:26.681Z,20.23
2023-03-26T14:50:20.552Z,15.75
2023-03-26T14:52:52.239Z,13.73
2023-03-26T14:55:58.811Z,15.52
2023-03-26T14:58:50.837Z,13.80
2023-03-26T15:01:25.368Z,16.88
2023-03-26T15:04:10.972Z,14.40
2023-03-26T15:07:04.980Z,14.35
2023-03-26T15:09:53.343Z,15.70
2023-03-26T15:12:41.851Z,14.25
2023-03-26T15:15:34.669Z,9.77
2023-03-26T15:18:20.039Z,9.93
2023-03-26T15:23:47.325Z,21.13
2023-03-26T15:26:45.494Z,13.32
2023-03-26T15:29:30.765Z,25.52
2023-03-26T15:32:26.072Z,19.05
2023-03-26T15:35:32.289Z,23.27
2023-03-26T15:38:21.813Z,18.60
2023-03-26T15:41:19.595Z,17.48
2023-03-26T15:44:24.216Z,24.38
2023-03-26T15:47:23.014Z,19.80
2023-03-26T15:49:59.209Z,15.57
2023-03-26T15:52:38.751Z,19.63
2023-03-26T15:55:21.286Z,17.15
2023-03-26T15:58:12.975Z,19.35
2023-03-26T16:01:10.668Z,26.20
2023-03-26T16:03:50.864Z,11.63
2023-03-26T16:06:32.925Z,17.67
2023-03-26T16:09:18.331Z,28.95
2023-03-26T16:11:54.099Z,37.20
2023-03-26T16:14:43.106Z,42.08
2023-03-26T16:17:27.835Z,19.73
2023-03-26T16:20:33.435Z,18.08
2023-03-26T16:23:04.634Z,26.95
2023-03-26T16:25:53.200Z,23.52
2023-03-26T16:28:28.427Z,26.63
2023-03-26T16:31:36.831Z,22.83
2023-03-26T16:34:09.332Z,20.23
2023-03-26T16:36:44.678Z,19.60
2023-03-26T16:39:18.889Z,16.85
2023-03-26T16:41:47.212Z,24.98
2023-03-26T16:44:19.650Z,33.03
2023-03-26T16:47:29.887Z,21.48
2023-03-26T16:50:24.580Z,21.42
2023-03-26T16:53:09.413Z,19.08
2023-03-26T16:55:38.820Z,16.83
2023-03-26T16:58:22.078Z,9.60
2023-03-26T17:00:52.483Z,9.95
2023-03-26T17:03:29.215Z,15.07
2023-03-26T17:05:56.701Z,22.88
2023-03-26T17:08:48.223Z,30.65
2023-03-26T17:11:24.350Z,11.82
2023-03-26T17:14:03.605Z,15.57
2023-03-26T17:16:43.410Z,11.90
2023-03-26T17:19:34.763Z,10.23
2023-03-26T17:22:32.689Z,13.80
2023-03-26T17:25:28.777Z,22.42
2023-03-26T17:28:07.282Z,78.72
2023-03-26T17:31:04.659Z,43.42
2023-03-26T17:33:34.759Z,19.30
2023-03-26T17:36:13.883Z,13.23
2023-03-26T17:38:40.818Z,11.75
2023-03-26T17:41:17.457Z,10.10
2023-03-26T17:43:52.300Z,16.08
2023-03-26T17:46:25.136Z,12.57
2023-03-26T17:49:16.723Z,14.25
2023-03-26T17:51:58.478Z,18.55
2023-03-26T17:54:45.678Z,28.67
2023-03-26T17:57:42.062Z,20.63
2023-03-26T18:00:18.342Z,22.67
2023-03-26T18:02:54.159Z,27.88
2023-03-26T18:05:22.915Z,27.70
2023-03-26T18:08:13.474Z,19.35
2023-03-26T18:11:02.409Z,44.35
2023-03-26T18:13:57.028Z,46.35
2023-03-26T18:16:32.112Z,30.80
2023-03-26T18:21:38.319Z,26.40
2023-03-26T18:24:08.843Z,19.00
2023-03-26T18:26:47.433Z,23.33
2023-03-26T18:29:28.572Z,25.10
2023-03-26T18:32:17.478Z,26.67
2023-03-26T18:34:50.135Z,79.30
2023-03-26T18:37:34.872Z,40.25
2023-03-26T18:40:10.183Z,49.80
2023-03-26T18:42:37.517Z,51.58
2023-03-26T18:45:09.559Z,50.17
2023-03-26T18:47:38.273Z,39.20
2023-03-26T18:50:05.588Z,51.75
2023-03-26T18:52:32.582Z,90.03
2023-03-26T18:55:01.822Z,56.30
2023-03-26T18:57:29.901Z,34.80
2023-03-26T19:00:10.264Z,34.30
2023-03-26T19:02:39.097Z,73.70
2023-03-26T19:05:07.365Z,49.65
2023-03-26T19:07:36.004Z,46.05
2023-03-26T19:10:02.853Z,39.80
2023-03-26T19:12:33.260Z,38.75
2023-03-26T19:15:13.068Z,46.70
2023-03-26T19:17:53.420Z,38.85
2023-03-26T19:20:24.647Z,25.23
2023-03-26T19:22:52.165Z,18.77
2023-03-26T19:25:29.930Z,39.13
2023-03-26T19:27:57.000Z,35.28
2023-03-26T19:30:31.828Z,35.38
2023-03-26T19:33:13.029Z,30.20
2023-03-26T19:35:42.397Z,37.08
2023-03-26T19:38:44.199Z,31.45
2023-03-26T19:41:43.962Z,15.63
2023-03-26T19:44:21.424Z,16.50
2023-03-26T19:46:53.930Z,14.43
2023-03-26T19:49:33.321Z,18.85
2023-03-26T19:52:05.572Z,13.70
2023-03-26T19:54:32.491Z,13.00
2023-03-26T19:57:00.978Z,22.58
2023-03-26T19:59:27.795Z,23.60
2023-03-26T20:01:54.508Z,23.50
2023-03-26T20:04:21.354Z,23.38
2023-03-26T20:06:49.523Z,24.42
2023-03-26T20:09:16.759Z,34.47
2023-03-26T20:11:43.581Z,93.18
2023-03-26T20:14:25.898Z,53.67
2023-03-26T20:16:53.124Z,33.38
2023-03-26T20:19:20.619Z,31.05
2023-03-26T20:21:47.604Z,31.98
2023-03-26T20:24:17.119Z,41.45
2023-03-26T20:26:46.228Z,37.28
2023-03-26T20:29:14.268Z,47.65
2023-03-26T20:31:42.138Z,29.85
2023-03-26T20:34:15.162Z,12.23
2023-03-26T20:36:41.969Z,18.50
2023-03-26T20:39:09.698Z,17.30
2023-03-26T20:41:43.372Z,14.90
2023-03-26T20:44:16.086Z,18.50
2023-03-26T20:46:44.388Z,18.60
2023-03-26T20:49:12.233Z,22.40
2023-03-26T20:51:42.021Z,26.05
2023-03-26T20:54:17.890Z,30.33
2023-03-26T20:56:45.722Z,42.50
2023-03-26T20:59:17.968Z,50.67
2023-03-26T21:01:47.525Z,34.22
2023-03-26T21:04:16.302Z,40.00
2023-03-26T21:06:43.687Z,46.45
2023-03-26T21:09:17.834Z,47.53
2023-03-26T21:12:05.152Z,35.33
2023-03-26T21:14:44.322Z,34.72
2023-03-26T21:17:18.078Z,52.45
2023-03-26T21:19:45.555Z,51.97
2023-03-26T21:22:32.561Z,61.20
2023-03-26T21:25:17.379Z,53.85
2023-03-26T21:28:02.584Z,52.85
2023-03-26T21:30:29.698Z,40.55
2023-03-26T21:32:56.422Z,40.85
2023-03-26T21:35:23.780Z,36.20
2023-03-26T21:37:50.973Z,34.58
2023-03-26T21:40:19.882Z,35.85
2023-03-26T21:42:52.160Z,25.30
2023-03-26T21:45:20.066Z,19.23
2023-03-26T21:47:47.742Z,18.55
2023-03-26T21:50:18.045Z,53.72
2023-03-26T21:52:48.453Z,53.00
2023-03-26T21:55:17.853Z,31.10
2023-03-26T21:58:04.758Z,30.90
2023-03-26T22:00:55.088Z,40.92
2023-03-26T22:03:33.147Z,25.67
2023-03-26T22:06:16.181Z,14.55
2023-03-26T22:08:43.112Z,19.38
2023-03-26T22:11:12.278Z,25.13
2023-03-26T22:13:39.222Z,18.83
2023-03-26T22:16:08.313Z,15.27
2023-03-26T22:18:35.290Z,56.38
2023-03-26T22:21:02.573Z,20.25
2023-03-26T22:23:36.131Z,20.20
2023-03-26T22:26:04.397Z,23.20
2023-03-26T22:28:31.295Z,19.67
2023-03-26T22:30:58.537Z,16.45
2023-03-26T22:33:25.655Z,12.05
2023-03-26T22:35:52.561Z,11.40
2023-03-26T22:38:19.384Z,14.80
2023-03-26T22:40:55.181Z,10.05
2023-03-26T22:43:22.085Z,17.80
2023-03-26T22:45:53.785Z,14.55
2023-03-26T22:48:24.665Z,10.90
2023-03-26T22:51:03.132Z,18.83
2023-03-26T22:53:30.936Z,25.67
2023-03-26T22:55:59.008Z,26.80
2023-03-26T22:58:28.386Z,20.27
2023-03-26T23:01:08.337Z,17.98
2023-03-26T23:03:36.943Z,21.13
2023-03-26T23:06:07.405Z,16.00
2023-03-26T23:08:35.261Z,13.00
2023-03-26T23:11:02.390Z,11.55
2023-03-26T23:13:29.043Z,10.93
2023-03-26T23:15:57.268Z,12.40
2023-03-26T23:18:24.379Z,10.90
2023-03-26T23:20:54.985Z,9.98
2023-03-26T23:23:27.471Z,10.30
2023-03-26T23:25:55.118Z,7.53
2023-03-26T23:28:24.102Z,9.85
2023-03-26T23:30:52.579Z,12.77
2023-03-26T23:33:30.314Z,11.82
2023-03-26T23:36:00.050Z,9.68
2023-03-26T23:38:43.572Z,9.52
2023-03-26T23:41:15.274Z,8.35
2023-03-26T23:43:54.248Z,9.95
2023-03-26T23:46:23.598Z,9.93
2023-03-26T23:48:55.116Z,9.65
2023-03-26T23:51:22.348Z,11.10
2023-03-26T23:53:49.790Z,9.35
2023-03-26T23:56:17.232Z,9.25
2023-03-26T23:58:44.126Z,9.70
